sensor_id;sensor_type;location;lat;lon;timestamp;temperature;humidity
72650;SHT31;61467;50.674;4.618;2022-07-21T00:00:54;20.20;76.80
72650;SHT31;61467;50.674;4.618;2022-07-21T00:03:21;20.25;76.46
72650;SHT31;61467;50.674;4.618;2022-07-21T00:05:48;20.22;76.69
72650;SHT31;61467;50.674;4.618;2022-07-21T00:08:14;20.16;76.93
72650;SHT31;61467;50.674;4.618;2022-07-21T00:10:41;20.24;76.81
72650;SHT31;61467;50.674;4.618;2022-07-21T00:13:08;20.04;77.34
72650;SHT31;61467;50.674;4.618;2022-07-21T00:15:35;20.16;76.90
72650;SHT31;61467;50.674;4.618;2022-07-21T00:18:03;20.21;77.14
72650;SHT31;61467;50.674;4.618;2022-07-21T00:20:30;20.09;77.59
72650;SHT31;61467;50.674;4.618;2022-07-21T00:22:58;20.17;76.88
72650;SHT31;61467;50.674;4.618;2022-07-21T00:25:25;20.24;76.83
72650;SHT31;61467;50.674;4.618;2022-07-21T00:27:52;20.21;76.50
72650;SHT31;61467;50.674;4.618;2022-07-21T00:30:18;20.20;77.05
72650;SHT31;61467;50.674;4.618;2022-07-21T00:32:45;20.28;76.46
72650;SHT31;61467;50.674;4.618;2022-07-21T00:35:14;20.24;76.70
72650;SHT31;61467;50.674;4.618;2022-07-21T00:37:41;20.16;76.97
72650;SHT31;61467;50.674;4.618;2022-07-21T00:40:09;20.31;76.71
72650;SHT31;61467;50.674;4.618;2022-07-21T00:42:36;20.14;77.54
72650;SHT31;61467;50.674;4.618;2022-07-21T00:45:04;20.28;77.03
72650;SHT31;61467;50.674;4.618;2022-07-21T00:47:32;20.20;77.02
72650;SHT31;61467;50.674;4.618;2022-07-21T00:50:00;20.04;77.91
72650;SHT31;61467;50.674;4.618;2022-07-21T00:52:29;20.25;77.13
72650;SHT31;61467;50.674;4.618;2022-07-21T00:54:55;20.31;76.97
72650;SHT31;61467;50.674;4.618;2022-07-21T00:57:22;20.38;76.45
72650;SHT31;61467;50.674;4.618;2022-07-21T00:59:49;20.38;76.44
72650;SHT31;61467;50.674;4.618;2022-07-21T01:02:16;20.27;76.81
72650;SHT31;61467;50.674;4.618;2022-07-21T01:04:43;20.11;77.36
72650;SHT31;61467;50.674;4.618;2022-07-21T01:07:09;20.13;77.17
72650;SHT31;61467;50.674;4.618;2022-07-21T01:09:38;20.00;78.03
72650;SHT31;61467;50.674;4.618;2022-07-21T01:12:06;20.11;77.52
72650;SHT31;61467;50.674;4.618;2022-07-21T01:14:33;20.09;77.73
72650;SHT31;61467;50.674;4.618;2022-07-21T01:17:01;20.10;77.39
72650;SHT31;61467;50.674;4.618;2022-07-21T01:19:28;20.16;77.38
72650;SHT31;61467;50.674;4.618;2022-07-21T01:21:56;19.89;78.48
72650;SHT31;61467;50.674;4.618;2022-07-21T01:24:23;19.81;78.64
72650;SHT31;61467;50.674;4.618;2022-07-21T01:26:52;19.53;79.91
72650;SHT31;61467;50.674;4.618;2022-07-21T01:29:20;19.56;79.82
72650;SHT31;61467;50.674;4.618;2022-07-21T01:31:48;19.63;79.91
72650;SHT31;61467;50.674;4.618;2022-07-21T01:34:16;19.80;78.87
72650;SHT31;61467;50.674;4.618;2022-07-21T01:36:43;19.55;79.33
72650;SHT31;61467;50.674;4.618;2022-07-21T01:39:12;19.70;79.49
72650;SHT31;61467;50.674;4.618;2022-07-21T01:41:56;19.74;79.04
72650;SHT31;61467;50.674;4.618;2022-07-21T01:44:22;19.63;79.68
72650;SHT31;61467;50.674;4.618;2022-07-21T01:46:50;19.59;79.69
72650;SHT31;61467;50.674;4.618;2022-07-21T01:49:19;19.87;78.60
72650;SHT31;61467;50.674;4.618;2022-07-21T01:51:46;19.49;80.21
72650;SHT31;61467;50.674;4.618;2022-07-21T01:54:14;19.81;78.97
72650;SHT31;61467;50.674;4.618;2022-07-21T01:56:41;19.58;79.88
72650;SHT31;61467;50.674;4.618;2022-07-21T01:59:07;19.49;80.47
72650;SHT31;61467;50.674;4.618;2022-07-21T02:01:34;19.67;79.60
72650;SHT31;61467;50.674;4.618;2022-07-21T02:04:03;19.80;79.00
72650;SHT31;61467;50.674;4.618;2022-07-21T02:06:31;19.77;78.92
72650;SHT31;61467;50.674;4.618;2022-07-21T02:08:58;19.93;78.88
72650;SHT31;61467;50.674;4.618;2022-07-21T02:11:26;19.74;79.45
72650;SHT31;61467;50.674;4.618;2022-07-21T02:13:53;19.84;79.15
72650;SHT31;61467;50.674;4.618;2022-07-21T02:16:20;19.96;78.46
72650;SHT31;61467;50.674;4.618;2022-07-21T02:18:47;20.01;78.20
72650;SHT31;61467;50.674;4.618;2022-07-21T02:21:13;19.84;78.85
72650;SHT31;61467;50.674;4.618;2022-07-21T02:23:40;19.90;78.61
72650;SHT31;61467;50.674;4.618;2022-07-21T02:26:07;19.91;78.50
72650;SHT31;61467;50.674;4.618;2022-07-21T02:28:35;19.91;78.57
72650;SHT31;61467;50.674;4.618;2022-07-21T02:31:01;19.91;78.80
72650;SHT31;61467;50.674;4.618;2022-07-21T02:33:28;20.03;78.49
72650;SHT31;61467;50.674;4.618;2022-07-21T02:35:55;19.98;78.81
72650;SHT31;61467;50.674;4.618;2022-07-21T02:38:22;19.94;79.11
72650;SHT31;61467;50.674;4.618;2022-07-21T02:40:48;20.10;78.26
72650;SHT31;61467;50.674;4.618;2022-07-21T02:43:15;20.00;78.86
72650;SHT31;61467;50.674;4.618;2022-07-21T02:45:44;20.10;78.52
72650;SHT31;61467;50.674;4.618;2022-07-21T02:48:11;20.09;78.77
72650;SHT31;61467;50.674;4.618;2022-07-21T02:50:41;20.10;78.65
72650;SHT31;61467;50.674;4.618;2022-07-21T02:53:10;19.86;79.69
72650;SHT31;61467;50.674;4.618;2022-07-21T02:55:38;19.93;79.44
72650;SHT31;61467;50.674;4.618;2022-07-21T02:58:07;20.11;78.64
72650;SHT31;61467;50.674;4.618;2022-07-21T03:00:35;19.83;79.83
72650;SHT31;61467;50.674;4.618;2022-07-21T03:03:03;19.81;79.73
72650;SHT31;61467;50.674;4.618;2022-07-21T03:05:30;19.81;79.95
72650;SHT31;61467;50.674;4.618;2022-07-21T03:07:57;19.93;79.42
72650;SHT31;61467;50.674;4.618;2022-07-21T03:10:24;19.77;80.28
72650;SHT31;61467;50.674;4.618;2022-07-21T03:12:50;19.79;80.08
72650;SHT31;61467;50.674;4.618;2022-07-21T03:15:17;19.73;80.52
72650;SHT31;61467;50.674;4.618;2022-07-21T03:17:44;19.83;79.97
72650;SHT31;61467;50.674;4.618;2022-07-21T03:20:13;20.07;78.88
72650;SHT31;61467;50.674;4.618;2022-07-21T03:22:39;19.83;79.72
72650;SHT31;61467;50.674;4.618;2022-07-21T03:25:07;20.03;78.90
72650;SHT31;61467;50.674;4.618;2022-07-21T03:27:33;20.09;78.61
72650;SHT31;61467;50.674;4.618;2022-07-21T03:30:06;20.06;78.71
72650;SHT31;61467;50.674;4.618;2022-07-21T03:32:34;20.07;78.50
72650;SHT31;61467;50.674;4.618;2022-07-21T03:35:01;20.01;78.70
72650;SHT31;61467;50.674;4.618;2022-07-21T03:37:30;19.97;78.67
72650;SHT31;61467;50.674;4.618;2022-07-21T03:39:57;19.90;78.97
72650;SHT31;61467;50.674;4.618;2022-07-21T03:42:24;19.90;78.69
72650;SHT31;61467;50.674;4.618;2022-07-21T03:44:50;20.00;78.16
72650;SHT31;61467;50.674;4.618;2022-07-21T03:47:17;19.87;78.77
72650;SHT31;61467;50.674;4.618;2022-07-21T03:49:44;19.84;78.94
72650;SHT31;61467;50.674;4.618;2022-07-21T03:52:10;20.01;78.18
72650;SHT31;61467;50.674;4.618;2022-07-21T03:54:38;20.06;77.96
72650;SHT31;61467;50.674;4.618;2022-07-21T03:57:05;19.96;78.50
72650;SHT31;61467;50.674;4.618;2022-07-21T03:59:32;20.00;77.98
72650;SHT31;61467;50.674;4.618;2022-07-21T04:01:58;19.87;78.50
72650;SHT31;61467;50.674;4.618;2022-07-21T04:04:25;19.83;78.29
72650;SHT31;61467;50.674;4.618;2022-07-21T04:06:51;20.00;77.83
72650;SHT31;61467;50.674;4.618;2022-07-21T04:09:18;20.04;77.41
72650;SHT31;61467;50.674;4.618;2022-07-21T04:11:46;19.83;78.24
72650;SHT31;61467;50.674;4.618;2022-07-21T04:14:13;19.84;78.12
72650;SHT31;61467;50.674;4.618;2022-07-21T04:16:40;19.70;78.79
72650;SHT31;61467;50.674;4.618;2022-07-21T04:19:06;19.74;78.68
72650;SHT31;61467;50.674;4.618;2022-07-21T04:21:33;19.84;78.09
72650;SHT31;61467;50.674;4.618;2022-07-21T04:24:00;19.73;78.68
72650;SHT31;61467;50.674;4.618;2022-07-21T04:26:26;19.81;78.55
72650;SHT31;61467;50.674;4.618;2022-07-21T04:28:55;19.52;79.44
72650;SHT31;61467;50.674;4.618;2022-07-21T04:31:22;19.53;79.24
72650;SHT31;61467;50.674;4.618;2022-07-21T04:33:48;19.58;79.50
72650;SHT31;61467;50.674;4.618;2022-07-21T04:36:15;19.39;80.06
72650;SHT31;61467;50.674;4.618;2022-07-21T04:38:41;19.59;79.76
72650;SHT31;61467;50.674;4.618;2022-07-21T04:41:08;19.36;80.91
72650;SHT31;61467;50.674;4.618;2022-07-21T04:43:35;19.28;80.73
72650;SHT31;61467;50.674;4.618;2022-07-21T04:46:05;19.58;80.06
72650;SHT31;61467;50.674;4.618;2022-07-21T04:48:32;19.65;79.47
72650;SHT31;61467;50.674;4.618;2022-07-21T04:50:59;19.59;79.19
72650;SHT31;61467;50.674;4.618;2022-07-21T04:53:25;19.56;79.10
72650;SHT31;61467;50.674;4.618;2022-07-21T04:55:52;19.31;79.88
72650;SHT31;61467;50.674;4.618;2022-07-21T04:58:19;19.42;80.01
72650;SHT31;61467;50.674;4.618;2022-07-21T05:00:45;19.21;80.40
72650;SHT31;61467;50.674;4.618;2022-07-21T05:03:13;19.22;80.28
72650;SHT31;61467;50.674;4.618;2022-07-21T05:05:40;19.16;79.78
72650;SHT31;61467;50.674;4.618;2022-07-21T05:08:07;19.41;79.77
72650;SHT31;61467;50.674;4.618;2022-07-21T05:10:34;19.42;78.78
72650;SHT31;61467;50.674;4.618;2022-07-21T05:13:00;19.53;78.86
72650;SHT31;61467;50.674;4.618;2022-07-21T05:15:27;19.31;79.94
72650;SHT31;61467;50.674;4.618;2022-07-21T05:17:53;19.33;79.35
72650;SHT31;61467;50.674;4.618;2022-07-21T05:20:22;19.26;79.65
72650;SHT31;61467;50.674;4.618;2022-07-21T05:22:48;19.29;79.82
72650;SHT31;61467;50.674;4.618;2022-07-21T05:25:15;19.15;79.94
72650;SHT31;61467;50.674;4.618;2022-07-21T05:27:42;19.52;79.01
72650;SHT31;61467;50.674;4.618;2022-07-21T05:30:10;19.56;79.33
72650;SHT31;61467;50.674;4.618;2022-07-21T05:32:36;19.45;79.66
72650;SHT31;61467;50.674;4.618;2022-07-21T05:35:04;19.53;79.44
72650;SHT31;61467;50.674;4.618;2022-07-21T05:37:37;19.45;80.11
72650;SHT31;61467;50.674;4.618;2022-07-21T05:40:05;19.46;79.87
72650;SHT31;61467;50.674;4.618;2022-07-21T05:42:32;19.52;80.12
72650;SHT31;61467;50.674;4.618;2022-07-21T05:44:58;19.43;80.39
72650;SHT31;61467;50.674;4.618;2022-07-21T05:47:25;19.86;78.25
72650;SHT31;61467;50.674;4.618;2022-07-21T05:49:52;20.13;77.74
72650;SHT31;61467;50.674;4.618;2022-07-21T05:52:18;20.41;76.48
72650;SHT31;61467;50.674;4.618;2022-07-21T05:54:46;20.53;76.37
72650;SHT31;61467;50.674;4.618;2022-07-21T05:57:13;20.44;76.69
72650;SHT31;61467;50.674;4.618;2022-07-21T05:59:40;20.35;76.81
72650;SHT31;61467;50.674;4.618;2022-07-21T06:02:09;20.25;76.87
72650;SHT31;61467;50.674;4.618;2022-07-21T06:04:37;20.44;76.62
72650;SHT31;61467;50.674;4.618;2022-07-21T06:07:04;20.18;77.35
72650;SHT31;61467;50.674;4.618;2022-07-21T06:09:32;20.56;76.26
72650;SHT31;61467;50.674;4.618;2022-07-21T06:12:00;20.73;75.42
72650;SHT31;61467;50.674;4.618;2022-07-21T06:14:27;20.95;74.71
72650;SHT31;61467;50.674;4.618;2022-07-21T06:16:54;20.75;75.47
72650;SHT31;61467;50.674;4.618;2022-07-21T06:19:20;20.72;75.50
72650;SHT31;61467;50.674;4.618;2022-07-21T06:21:47;20.98;74.90
72650;SHT31;61467;50.674;4.618;2022-07-21T06:24:14;20.76;75.45
72650;SHT31;61467;50.674;4.618;2022-07-21T06:26:41;20.88;75.36
72650;SHT31;61467;50.674;4.618;2022-07-21T06:29:09;20.96;74.96
72650;SHT31;61467;50.674;4.618;2022-07-21T06:31:36;21.02;75.14
72650;SHT31;61467;50.674;4.618;2022-07-21T06:34:02;20.76;75.86
72650;SHT31;61467;50.674;4.618;2022-07-21T06:36:29;20.82;75.49
72650;SHT31;61467;50.674;4.618;2022-07-21T06:38:56;20.88;75.29
72650;SHT31;61467;50.674;4.618;2022-07-21T06:41:23;21.02;75.19
72650;SHT31;61467;50.674;4.618;2022-07-21T06:43:49;21.07;74.85
72650;SHT31;61467;50.674;4.618;2022-07-21T06:46:17;20.92;75.46
72650;SHT31;61467;50.674;4.618;2022-07-21T06:48:44;20.92;75.54
72650;SHT31;61467;50.674;4.618;2022-07-21T06:51:11;21.06;75.11
72650;SHT31;61467;50.674;4.618;2022-07-21T06:53:37;21.13;75.00
72650;SHT31;61467;50.674;4.618;2022-07-21T06:56:04;20.92;75.38
72650;SHT31;61467;50.674;4.618;2022-07-21T06:58:31;20.98;75.45
72650;SHT31;61467;50.674;4.618;2022-07-21T07:00:59;21.12;75.00
72650;SHT31;61467;50.674;4.618;2022-07-21T07:03:27;20.78;76.06
72650;SHT31;61467;50.674;4.618;2022-07-21T07:05:54;21.10;75.12
72650;SHT31;61467;50.674;4.618;2022-07-21T07:08:21;21.20;74.78
72650;SHT31;61467;50.674;4.618;2022-07-21T07:10:47;21.18;75.01
72650;SHT31;61467;50.674;4.618;2022-07-21T07:13:14;21.18;75.11
72650;SHT31;61467;50.674;4.618;2022-07-21T07:15:43;21.16;75.16
72650;SHT31;61467;50.674;4.618;2022-07-21T07:18:12;21.13;75.25
72650;SHT31;61467;50.674;4.618;2022-07-21T07:20:40;21.12;75.34
72650;SHT31;61467;50.674;4.618;2022-07-21T07:23:07;21.23;74.89
72650;SHT31;61467;50.674;4.618;2022-07-21T07:25:33;21.31;74.98
72650;SHT31;61467;50.674;4.618;2022-07-21T07:28:00;21.12;75.37
72650;SHT31;61467;50.674;4.618;2022-07-21T07:30:27;20.78;76.77
72650;SHT31;61467;50.674;4.618;2022-07-21T07:32:54;20.78;76.63
72650;SHT31;61467;50.674;4.618;2022-07-21T07:35:22;20.61;77.47
72650;SHT31;61467;50.674;4.618;2022-07-21T07:37:50;20.92;76.51
72650;SHT31;61467;50.674;4.618;2022-07-21T07:40:19;20.88;76.42
72650;SHT31;61467;50.674;4.618;2022-07-21T07:42:46;20.98;75.91
72650;SHT31;61467;50.674;4.618;2022-07-21T07:45:13;20.96;76.02
72650;SHT31;61467;50.674;4.618;2022-07-21T07:47:40;20.96;75.97
72650;SHT31;61467;50.674;4.618;2022-07-21T07:50:09;20.68;77.18
72650;SHT31;61467;50.674;4.618;2022-07-21T07:52:36;20.92;76.25
72650;SHT31;61467;50.674;4.618;2022-07-21T07:55:06;20.55;77.68
72650;SHT31;61467;50.674;4.618;2022-07-21T07:57:35;20.27;79.00
72650;SHT31;61467;50.674;4.618;2022-07-21T08:00:04;20.81;76.84
72650;SHT31;61467;50.674;4.618;2022-07-21T08:02:31;20.65;77.55
72650;SHT31;61467;50.674;4.618;2022-07-21T08:04:58;20.68;77.56
72650;SHT31;61467;50.674;4.618;2022-07-21T08:07:25;20.30;78.99
72650;SHT31;61467;50.674;4.618;2022-07-21T08:09:51;20.73;77.51
72650;SHT31;61467;50.674;4.618;2022-07-21T08:12:20;20.81;76.82
72650;SHT31;61467;50.674;4.618;2022-07-21T08:14:46;20.90;77.05
72650;SHT31;61467;50.674;4.618;2022-07-21T08:17:13;20.58;78.06
72650;SHT31;61467;50.674;4.618;2022-07-21T08:19:42;20.21;79.33
72650;SHT31;61467;50.674;4.618;2022-07-21T08:22:08;19.86;81.24
72650;SHT31;61467;50.674;4.618;2022-07-21T08:24:35;19.69;81.23
72650;SHT31;61467;50.674;4.618;2022-07-21T08:27:02;19.42;83.19
72650;SHT31;61467;50.674;4.618;2022-07-21T08:29:30;19.77;81.68
72650;SHT31;61467;50.674;4.618;2022-07-21T08:31:56;19.87;81.13
72650;SHT31;61467;50.674;4.618;2022-07-21T08:34:23;19.94;80.79
72650;SHT31;61467;50.674;4.618;2022-07-21T08:36:50;19.74;81.13
72650;SHT31;61467;50.674;4.618;2022-07-21T08:39:18;19.53;82.69
72650;SHT31;61467;50.674;4.618;2022-07-21T08:41:45;19.72;81.89
72650;SHT31;61467;50.674;4.618;2022-07-21T08:44:12;19.59;82.11
72650;SHT31;61467;50.674;4.618;2022-07-21T08:46:41;19.74;82.19
72650;SHT31;61467;50.674;4.618;2022-07-21T08:49:09;19.67;82.59
72650;SHT31;61467;50.674;4.618;2022-07-21T08:51:36;19.65;82.47
72650;SHT31;61467;50.674;4.618;2022-07-21T08:54:04;19.58;82.49
72650;SHT31;61467;50.674;4.618;2022-07-21T08:56:30;19.52;82.75
72650;SHT31;61467;50.674;4.618;2022-07-21T08:58:57;19.52;82.67
72650;SHT31;61467;50.674;4.618;2022-07-21T09:01:24;19.65;82.75
72650;SHT31;61467;50.674;4.618;2022-07-21T09:03:53;19.58;82.72
72650;SHT31;61467;50.674;4.618;2022-07-21T09:06:20;19.94;81.33
72650;SHT31;61467;50.674;4.618;2022-07-21T09:08:48;19.74;81.99
72650;SHT31;61467;50.674;4.618;2022-07-21T09:11:19;19.62;82.48
72650;SHT31;61467;50.674;4.618;2022-07-21T09:13:48;19.65;82.99
72650;SHT31;61467;50.674;4.618;2022-07-21T09:16:34;19.51;83.92
72650;SHT31;61467;50.674;4.618;2022-07-21T09:19:03;19.23;85.11
72650;SHT31;61467;50.674;4.618;2022-07-21T09:21:31;19.43;84.79
72650;SHT31;61467;50.674;4.618;2022-07-21T09:24:11;19.41;85.10
72650;SHT31;61467;50.674;4.618;2022-07-21T09:26:57;19.49;85.48
72650;SHT31;61467;50.674;4.618;2022-07-21T09:29:24;19.43;85.99
72650;SHT31;61467;50.674;4.618;2022-07-21T09:31:50;19.51;85.17
72650;SHT31;61467;50.674;4.618;2022-07-21T09:34:19;19.79;84.19
72650;SHT31;61467;50.674;4.618;2022-07-21T09:36:54;19.53;85.23
72650;SHT31;61467;50.674;4.618;2022-07-21T09:39:40;19.58;85.49
72650;SHT31;61467;50.674;4.618;2022-07-21T09:42:15;19.58;85.06
72650;SHT31;61467;50.674;4.618;2022-07-21T09:44:44;19.81;84.68
72650;SHT31;61467;50.674;4.618;2022-07-21T09:47:12;19.76;84.59
72650;SHT31;61467;50.674;4.618;2022-07-21T09:49:41;19.79;85.05
72650;SHT31;61467;50.674;4.618;2022-07-21T09:52:23;19.80;84.69
72650;SHT31;61467;50.674;4.618;2022-07-21T09:54:51;19.69;85.49
72650;SHT31;61467;50.674;4.618;2022-07-21T09:57:19;19.76;85.13
72650;SHT31;61467;50.674;4.618;2022-07-21T09:59:47;19.62;85.80
72650;SHT31;61467;50.674;4.618;2022-07-21T10:02:16;19.48;86.57
72650;SHT31;61467;50.674;4.618;2022-07-21T10:04:48;19.46;86.64
72650;SHT31;61467;50.674;4.618;2022-07-21T10:07:16;19.43;86.36
72650;SHT31;61467;50.674;4.618;2022-07-21T10:09:44;19.29;86.84
72650;SHT31;61467;50.674;4.618;2022-07-21T10:12:11;19.65;86.02
72650;SHT31;61467;50.674;4.618;2022-07-21T10:14:38;19.60;85.83
72650;SHT31;61467;50.674;4.618;2022-07-21T10:17:05;19.53;86.20
72650;SHT31;61467;50.674;4.618;2022-07-21T10:19:37;19.39;86.79
72650;SHT31;61467;50.674;4.618;2022-07-21T10:22:12;19.65;86.18
72650;SHT31;61467;50.674;4.618;2022-07-21T10:24:41;19.48;86.82
72650;SHT31;61467;50.674;4.618;2022-07-21T10:27:11;19.55;86.66
72650;SHT31;61467;50.674;4.618;2022-07-21T10:29:54;19.65;86.73
72650;SHT31;61467;50.674;4.618;2022-07-21T10:32:22;19.60;86.39
72650;SHT31;61467;50.674;4.618;2022-07-21T10:34:50;19.51;86.75
72650;SHT31;61467;50.674;4.618;2022-07-21T10:37:49;19.46;86.82
72650;SHT31;61467;50.674;4.618;2022-07-21T10:40:49;19.66;86.46
72650;SHT31;61467;50.674;4.618;2022-07-21T10:43:36;19.48;87.20
72650;SHT31;61467;50.674;4.618;2022-07-21T10:46:03;19.48;87.32
72650;SHT31;61467;50.674;4.618;2022-07-21T10:48:48;19.12;86.62
72650;SHT31;61467;50.674;4.618;2022-07-21T10:51:16;19.10;86.65
72650;SHT31;61467;50.674;4.618;2022-07-21T10:53:44;19.42;86.25
72650;SHT31;61467;50.674;4.618;2022-07-21T10:56:25;19.15;86.85
72650;SHT31;61467;50.674;4.618;2022-07-21T10:58:52;19.31;86.39
72650;SHT31;61467;50.674;4.618;2022-07-21T11:01:20;19.18;86.85
72650;SHT31;61467;50.674;4.618;2022-07-21T11:04:07;18.90;87.25
72650;SHT31;61467;50.674;4.618;2022-07-21T11:06:36;18.91;87.56
72650;SHT31;61467;50.674;4.618;2022-07-21T11:09:09;19.12;86.68
72650;SHT31;61467;50.674;4.618;2022-07-21T11:11:37;19.08;86.57
72650;SHT31;61467;50.674;4.618;2022-07-21T11:14:09;18.97;87.06
72650;SHT31;61467;50.674;4.618;2022-07-21T11:17:09;19.15;87.00
72650;SHT31;61467;50.674;4.618;2022-07-21T11:19:40;19.04;87.19
72650;SHT31;61467;50.674;4.618;2022-07-21T11:22:10;19.38;86.16
72650;SHT31;61467;50.674;4.618;2022-07-21T11:24:40;18.92;87.05
72650;SHT31;61467;50.674;4.618;2022-07-21T11:27:08;18.91;87.91
72650;SHT31;61467;50.674;4.618;2022-07-21T11:29:38;19.14;86.74
72650;SHT31;61467;50.674;4.618;2022-07-21T11:32:06;19.02;87.43
72650;SHT31;61467;50.674;4.618;2022-07-21T11:34:38;19.14;86.72
72650;SHT31;61467;50.674;4.618;2022-07-21T11:37:05;19.19;86.29
72650;SHT31;61467;50.674;4.618;2022-07-21T11:39:32;19.32;85.87
72650;SHT31;61467;50.674;4.618;2022-07-21T11:42:03;19.25;85.30
72650;SHT31;61467;50.674;4.618;2022-07-21T11:44:30;19.10;86.05
72650;SHT31;61467;50.674;4.618;2022-07-21T11:46:58;19.29;85.49
72650;SHT31;61467;50.674;4.618;2022-07-21T11:49:26;19.15;86.70
72650;SHT31;61467;50.674;4.618;2022-07-21T11:51:56;19.60;85.16
72650;SHT31;61467;50.674;4.618;2022-07-21T11:54:26;19.49;85.19
72650;SHT31;61467;50.674;4.618;2022-07-21T11:56:54;19.66;84.77
72650;SHT31;61467;50.674;4.618;2022-07-21T11:59:23;19.60;85.13
72650;SHT31;61467;50.674;4.618;2022-07-21T12:01:51;19.58;84.96
72650;SHT31;61467;50.674;4.618;2022-07-21T12:04:35;19.77;83.99
72650;SHT31;61467;50.674;4.618;2022-07-21T12:07:04;19.86;83.78
72650;SHT31;61467;50.674;4.618;2022-07-21T12:09:32;19.36;84.66
72650;SHT31;61467;50.674;4.618;2022-07-21T12:11:59;19.19;84.44
72650;SHT31;61467;50.674;4.618;2022-07-21T12:14:41;19.39;85.48
72650;SHT31;61467;50.674;4.618;2022-07-21T12:17:07;19.41;85.04
72650;SHT31;61467;50.674;4.618;2022-07-21T12:19:34;19.79;83.77
72650;SHT31;61467;50.674;4.618;2022-07-21T12:22:01;19.53;84.25
72650;SHT31;61467;50.674;4.618;2022-07-21T12:24:47;19.55;84.29
72650;SHT31;61467;50.674;4.618;2022-07-21T12:27:16;19.39;84.14
72650;SHT31;61467;50.674;4.618;2022-07-21T12:29:44;19.49;83.82
72650;SHT31;61467;50.674;4.618;2022-07-21T12:32:11;19.63;83.06
72650;SHT31;61467;50.674;4.618;2022-07-21T12:34:48;19.45;83.95
72650;SHT31;61467;50.674;4.618;2022-07-21T12:37:15;19.55;83.13
72650;SHT31;61467;50.674;4.618;2022-07-21T12:39:42;19.62;83.36
72650;SHT31;61467;50.674;4.618;2022-07-21T12:42:28;19.87;83.11
72650;SHT31;61467;50.674;4.618;2022-07-21T12:44:57;19.66;83.10
72650;SHT31;61467;50.674;4.618;2022-07-21T12:47:25;19.41;83.34
72650;SHT31;61467;50.674;4.618;2022-07-21T12:50:00;19.18;83.16
72650;SHT31;61467;50.674;4.618;2022-07-21T12:52:28;18.90;84.30
72650;SHT31;61467;50.674;4.618;2022-07-21T12:54:55;19.02;83.43
72650;SHT31;61467;50.674;4.618;2022-07-21T12:57:25;19.28;82.97
72650;SHT31;61467;50.674;4.618;2022-07-21T12:59:52;19.15;83.06
72650;SHT31;61467;50.674;4.618;2022-07-21T13:02:19;19.31;82.50
72650;SHT31;61467;50.674;4.618;2022-07-21T13:04:46;19.49;82.04
72650;SHT31;61467;50.674;4.618;2022-07-21T13:07:13;19.23;82.36
72650;SHT31;61467;50.674;4.618;2022-07-21T13:09:40;19.19;82.43
72650;SHT31;61467;50.674;4.618;2022-07-21T13:12:07;19.38;82.18
72650;SHT31;61467;50.674;4.618;2022-07-21T13:14:34;19.39;82.25
72650;SHT31;61467;50.674;4.618;2022-07-21T13:17:00;19.07;82.47
72650;SHT31;61467;50.674;4.618;2022-07-21T13:19:28;19.36;82.08
72650;SHT31;61467;50.674;4.618;2022-07-21T13:21:57;19.52;81.99
72650;SHT31;61467;50.674;4.618;2022-07-21T13:24:23;19.84;81.62
72650;SHT31;61467;50.674;4.618;2022-07-21T13:26:50;20.10;80.94
72650;SHT31;61467;50.674;4.618;2022-07-21T13:29:17;20.03;80.82
72650;SHT31;61467;50.674;4.618;2022-07-21T13:31:43;20.25;80.13
72650;SHT31;61467;50.674;4.618;2022-07-21T13:34:13;20.07;81.63
72650;SHT31;61467;50.674;4.618;2022-07-21T13:36:41;20.17;79.71
72650;SHT31;61467;50.674;4.618;2022-07-21T13:39:07;20.42;79.70
72650;SHT31;61467;50.674;4.618;2022-07-21T13:41:34;20.42;79.67
72650;SHT31;61467;50.674;4.618;2022-07-21T13:44:03;20.68;78.63
72650;SHT31;61467;50.674;4.618;2022-07-21T13:46:30;20.89;78.66
72650;SHT31;61467;50.674;4.618;2022-07-21T13:48:57;20.56;78.53
72650;SHT31;61467;50.674;4.618;2022-07-21T13:51:24;20.07;79.72
72650;SHT31;61467;50.674;4.618;2022-07-21T13:53:52;19.83;80.08
72650;SHT31;61467;50.674;4.618;2022-07-21T13:56:19;20.25;79.05
72650;SHT31;61467;50.674;4.618;2022-07-21T13:58:46;20.38;80.03
72650;SHT31;61467;50.674;4.618;2022-07-21T14:01:13;20.53;79.53
72650;SHT31;61467;50.674;4.618;2022-07-21T14:03:41;20.68;78.58
72650;SHT31;61467;50.674;4.618;2022-07-21T14:06:08;20.88;78.13
72650;SHT31;61467;50.674;4.618;2022-07-21T14:08:35;20.99;77.70
72650;SHT31;61467;50.674;4.618;2022-07-21T14:11:05;20.79;77.30
72650;SHT31;61467;50.674;4.618;2022-07-21T14:13:32;20.79;76.60
72650;SHT31;61467;50.674;4.618;2022-07-21T14:16:00;20.89;77.34
72650;SHT31;61467;50.674;4.618;2022-07-21T14:18:27;20.71;76.38
72650;SHT31;61467;50.674;4.618;2022-07-21T14:20:54;20.65;75.96
72650;SHT31;61467;50.674;4.618;2022-07-21T14:23:24;20.81;76.34
72650;SHT31;61467;50.674;4.618;2022-07-21T14:25:51;20.76;76.06
72650;SHT31;61467;50.674;4.618;2022-07-21T14:28:20;20.72;75.35
72650;SHT31;61467;50.674;4.618;2022-07-21T14:30:47;20.75;75.59
72650;SHT31;61467;50.674;4.618;2022-07-21T14:33:14;21.02;75.06
72650;SHT31;61467;50.674;4.618;2022-07-21T14:35:41;21.06;75.53
72650;SHT31;61467;50.674;4.618;2022-07-21T14:38:08;20.85;75.18
72650;SHT31;61467;50.674;4.618;2022-07-21T14:40:35;20.85;75.43
72650;SHT31;61467;50.674;4.618;2022-07-21T14:43:02;20.68;75.01
72650;SHT31;61467;50.674;4.618;2022-07-21T14:45:30;20.75;76.04
72650;SHT31;61467;50.674;4.618;2022-07-21T14:47:57;20.71;75.47
72650;SHT31;61467;50.674;4.618;2022-07-21T14:50:26;20.85;75.05
72650;SHT31;61467;50.674;4.618;2022-07-21T14:52:53;20.73;75.92
72650;SHT31;61467;50.674;4.618;2022-07-21T14:55:20;21.06;75.29
72650;SHT31;61467;50.674;4.618;2022-07-21T14:57:48;21.06;75.15
72650;SHT31;61467;50.674;4.618;2022-07-21T15:00:15;21.12;74.68
72650;SHT31;61467;50.674;4.618;2022-07-21T15:02:43;20.98;74.79
72650;SHT31;61467;50.674;4.618;2022-07-21T15:05:10;21.22;74.35
72650;SHT31;61467;50.674;4.618;2022-07-21T15:07:37;21.20;74.14
72650;SHT31;61467;50.674;4.618;2022-07-21T15:10:04;21.18;74.21
72650;SHT31;61467;50.674;4.618;2022-07-21T15:12:31;21.34;73.66
72650;SHT31;61467;50.674;4.618;2022-07-21T15:15:00;21.06;74.23
72650;SHT31;61467;50.674;4.618;2022-07-21T15:17:26;21.13;73.80
72650;SHT31;61467;50.674;4.618;2022-07-21T15:19:56;20.73;73.38
72650;SHT31;61467;50.674;4.618;2022-07-21T15:22:24;20.90;73.74
72650;SHT31;61467;50.674;4.618;2022-07-21T15:24:55;21.09;73.49
72650;SHT31;61467;50.674;4.618;2022-07-21T15:27:21;21.16;72.86
72650;SHT31;61467;50.674;4.618;2022-07-21T15:29:48;20.89;72.57
72650;SHT31;61467;50.674;4.618;2022-07-21T15:32:15;20.85;73.21
72650;SHT31;61467;50.674;4.618;2022-07-21T15:34:41;20.51;74.00
72650;SHT31;61467;50.674;4.618;2022-07-21T15:37:09;20.48;74.62